Time;durP1;ratioP1;P1;durP2;ratioP2;P2;SDS_P1;SDS_P2;PMS_P1;PMS_P2;Temp;Humidity;BMP_temperature;BMP_pressure;BME280_temperature;BME280_humidity;BME280_pressure;Samples;Min_cycle;Max_cycle;Signal;HPM_P1;HPM_P2
2021/01/14 00:00:40;;;;;;;2.40;1.30;;;1.00;99.90;;;1.83;90.05;99326.00;5053452;28;20232;-63
2021/01/14 00:03:10;;;;;;;1.43;1.00;;;1.00;99.90;;;1.73;89.23;99308.69;5053246;28;20295;-64
2021/01/14 00:05:38;;;;;;;1.43;1.00;;;1.00;99.90;;;1.72;87.26;99313.19;5053087;28;20272;-64
2021/01/14 00:08:07;;;;;;;3.83;1.10;;;0.90;99.90;;;1.75;86.34;99319.94;5053059;28;20293;-63
2021/01/14 00:10:36;;;;;;;1.97;0.93;;;0.90;99.90;;;1.75;85.37;99301.38;5052706;28;20715;-63
2021/01/14 00:13:05;;;;;;;2.20;1.00;;;0.90;99.90;;;1.64;84.98;99307.97;5052988;28;20547;-63
2021/01/14 00:15:32;;;;;;;3.50;1.17;;;0.90;99.90;;;1.68;86.73;99314.56;5056424;28;20200;-62
2021/01/14 00:17:59;;;;;;;3.60;1.00;;;1.00;99.90;;;1.61;84.53;99310.19;5055427;28;20609;-63
2021/01/14 00:20:29;;;;;;;2.37;1.13;;;0.90;99.90;;;1.70;85.36;99306.41;5052680;28;20206;-63
2021/01/14 00:22:56;;;;;;;3.50;0.93;;;0.90;99.90;;;1.73;85.20;99319.31;5052852;28;20318;-62
2021/01/14 00:25:24;;;;;;;2.43;1.00;;;0.90;99.90;;;1.64;86.40;99313.25;5052603;28;20571;-62
2021/01/14 00:27:51;;;;;;;1.80;1.07;;;0.80;99.90;;;1.65;87.62;99300.81;5052791;28;20256;-63
2021/01/14 00:30:26;;;;;;;2.80;1.07;;;0.90;99.90;;;1.53;86.68;99304.94;5052625;28;20693;-63
2021/01/14 00:32:54;;;;;;;2.40;1.20;;;0.80;99.90;;;1.45;88.24;99287.31;5052481;28;20310;-63
2021/01/14 00:35:21;;;;;;;1.83;0.93;;;0.70;99.90;;;1.44;86.69;99285.63;5052478;28;20290;-64
2021/01/14 00:37:51;;;;;;;2.10;1.00;;;0.70;99.90;;;1.48;87.41;99289.59;5052789;28;20640;-63
2021/01/14 00:40:23;;;;;;;3.93;1.03;;;0.70;99.90;;;1.53;87.24;99276.59;5051734;28;20200;-63
2021/01/14 00:42:55;;;;;;;4.10;1.17;;;0.70;99.90;;;1.54;88.76;99293.34;5052207;28;20270;-63
2021/01/14 00:45:24;;;;;;;4.13;0.97;;;0.70;99.90;;;1.41;90.33;99290.50;5052634;28;20205;-62
2021/01/14 00:47:51;;;;;;;2.87;1.13;;;0.80;99.90;;;1.57;90.21;99298.28;5052381;28;20264;-63
2021/01/14 00:50:19;;;;;;;7.13;1.43;;;0.80;99.90;;;1.62;90.33;99301.19;5051985;28;20211;-63
2021/01/14 00:52:47;;;;;;;3.53;1.37;;;0.80;99.90;;;1.62;90.43;99301.19;5052074;28;20231;-63
2021/01/14 00:55:19;;;;;;;2.20;1.17;;;0.80;99.90;;;1.71;90.38;99292.94;5051849;28;20263;-63
2021/01/14 00:57:47;;;;;;;2.13;0.90;;;0.90;99.90;;;1.71;88.53;99298.25;5052346;28;20341;-62
2021/01/14 01:00:17;;;;;;;2.83;0.93;;;0.90;99.90;;;1.71;89.11;99300.91;5052354;28;20198;-63
2021/01/14 01:02:48;;;;;;;1.00;0.80;;;0.90;99.90;;;1.84;88.16;99305.59;5052267;28;20210;-65
2021/01/14 01:05:17;;;;;;;0.93;0.90;;;1.00;99.90;;;1.74;88.67;99310.34;5052139;28;20209;-63
2021/01/14 01:07:52;;;;;;;3.23;1.10;;;1.00;99.90;;;1.71;90.20;99314.19;5052134;28;20233;-63
2021/01/14 01:10:20;;;;;;;2.17;1.00;;;1.00;99.90;;;1.82;90.42;99312.91;5051659;28;20261;-62
2021/01/14 01:12:52;;;;;;;2.23;1.00;;;1.00;99.90;;;1.71;90.71;99321.34;5051620;28;20724;-63
2021/01/14 01:15:19;;;;;;;2.73;1.10;;;1.00;99.90;;;1.64;91.81;99325.75;5052057;28;20601;-63
2021/01/14 01:17:48;;;;;;;2.97;1.40;;;1.00;99.90;;;1.71;91.66;99331.97;5052021;28;20263;-63
2021/01/14 01:20:15;;;;;;;2.07;1.30;;;1.00;99.90;;;1.72;91.76;99323.81;5051561;28;20250;-62
2021/01/14 01:22:43;;;;;;;2.77;1.20;;;1.00;99.90;;;1.79;91.27;99338.00;5051549;28;20234;-63
2021/01/14 01:25:12;;;;;;;2.37;1.20;;;1.00;99.90;;;1.72;90.94;99322.97;5051683;28;20209;-62
2021/01/14 01:27:40;;;;;;;3.77;1.10;;;1.00;99.90;;;1.67;90.62;99323.53;5051404;28;20605;-62
2021/01/14 01:30:08;;;;;;;2.60;1.23;;;1.00;99.90;;;1.64;90.15;99341.66;5051916;28;20620;-62
2021/01/14 01:32:36;;;;;;;2.50;1.30;;;0.90;99.90;;;1.50;91.91;99337.16;5051345;28;20232;-62
2021/01/14 01:35:06;;;;;;;2.00;1.53;;;0.90;99.90;;;1.60;90.16;99319.13;5051414;28;20298;-63
2021/01/14 01:37:34;;;;;;;4.10;1.57;;;0.90;99.90;;;1.52;89.86;99328.03;5051761;28;20259;-63
2021/01/14 01:40:01;;;;;;;2.97;1.43;;;0.80;99.90;;;1.55;90.76;99311.72;5051520;28;20245;-63
2021/01/14 01:42:28;;;;;;;2.60;1.30;;;0.80;99.90;;;1.59;89.76;99315.66;5051477;28;20286;-63
2021/01/14 01:45:00;;;;;;;1.93;1.43;;;0.80;99.90;;;1.47;90.27;99318.97;5051543;28;20197;-62
2021/01/14 01:47:33;;;;;;;4.50;1.60;;;0.80;99.90;;;1.54;90.44;99328.66;5051516;28;20243;-63
2021/01/14 01:50:05;;;;;;;1.80;1.30;;;0.80;99.90;;;1.61;89.78;99320.81;5050706;28;20274;-62
2021/01/14 01:52:35;;;;;;;4.83;1.47;;;0.80;99.90;;;1.61;89.16;99326.09;5050581;28;20184;-63
2021/01/14 01:55:05;;;;;;;1.77;1.10;;;0.80;99.90;;;1.60;88.97;99319.13;5048493;28;20231;-64
2021/01/14 01:57:32;;;;;;;2.87;1.30;;;0.80;99.90;;;1.56;89.68;99318.66;5050952;28;20251;-62
2021/01/14 01:59:59;;;;;;;3.20;1.30;;;0.80;99.90;;;1.51;89.32;99320.22;5051309;28;20203;-62
2021/01/14 02:02:29;;;;;;;2.80;1.23;;;0.80;99.90;;;1.56;89.23;99312.53;5050989;28;20253;-62
2021/01/14 02:04:58;;;;;;;3.20;1.57;;;0.80;99.90;;;1.52;89.27;99300.66;5051061;28;20232;-63
2021/01/14 02:07:47;;;;;;;3.60;1.40;;;0.80;99.90;;;1.62;88.70;99312.66;5051193;28;20679;-62
2021/01/14 02:10:31;;;;;;;1.83;1.20;;;0.80;99.90;;;1.66;89.06;99305.94;5051278;28;20181;-63
2021/01/14 02:13:15;;;;;;;1.30;1.20;;;0.90;99.90;;;1.66;89.18;99315.75;5050998;28;20185;-63
2021/01/14 02:15:44;;;;;;;1.60;1.50;;;0.90;99.90;;;1.72;89.17;99322.97;5051386;28;20278;-62
2021/01/14 02:18:18;;;;;;;3.30;2.23;;;0.90;99.90;;;1.68;90.91;99327.00;5050910;28;20549;-63
2021/01/14 02:20:50;;;;;;;5.13;1.40;;;0.90;99.90;;;1.71;93.54;99321.34;5050643;28;20250;-62
2021/01/14 02:23:26;;;;;;;4.90;2.00;;;0.90;99.90;;;1.52;95.12;99319.22;5050898;28;20677;-62
2021/01/14 02:26:13;;;;;;;3.10;1.50;;;0.80;99.90;;;1.48;94.70;99329.38;5050848;28;20266;-62
2021/01/14 02:28:44;;;;;;;3.17;1.33;;;0.80;99.90;;;1.36;93.96;99330.84;5050814;28;20272;-63
2021/01/14 02:31:13;;;;;;;1.57;1.30;;;0.70;99.90;;;1.40;93.15;99324.16;5051278;28;20260;-62
2021/01/14 02:33:41;;;;;;;3.90;1.43;;;0.70;99.90;;;1.34;92.49;99324.88;5050935;28;20219;-64
2021/01/14 02:36:09;;;;;;;2.00;1.40;;;0.70;99.90;;;1.32;93.13;99331.38;5051040;28;20252;-62
2021/01/14 02:38:38;;;;;;;2.50;1.60;;;0.60;99.90;;;1.32;93.59;99342.00;5050830;28;20235;-62
2021/01/14 02:41:06;;;;;;;2.97;1.50;;;0.60;99.90;;;1.35;92.73;99338.97;5051022;28;20201;-63
2021/01/14 02:43:35;;;;;;;5.77;1.60;;;0.70;99.90;;;1.30;94.50;99339.53;5050557;28;20765;-62
2021/01/14 02:46:05;;;;;;;3.20;2.00;;;0.70;99.90;;;1.34;95.02;99362.00;5050905;28;20560;-63
2021/01/14 02:48:38;;;;;;;3.60;1.90;;;0.70;99.90;;;1.43;95.80;99355.63;5050967;28;20197;-63
2021/01/14 02:51:14;;;;;;;2.47;1.70;;;0.70;99.90;;;1.39;96.12;99364.94;5050837;28;20186;-62
2021/01/14 02:54:37;;;;;;;2.87;1.83;;;0.70;99.90;;;1.37;97.15;99369.59;5050632;28;20182;-62
2021/01/14 02:57:26;;;;;;;2.73;1.87;;;0.70;99.90;;;1.40;96.81;99377.22;5050722;28;20341;-62
2021/01/14 02:59:54;;;;;;;3.33;1.90;;;0.60;99.90;;;1.35;96.73;99390.22;5050683;28;20276;-62
2021/01/14 03:02:22;;;;;;;2.53;1.90;;;0.70;99.90;;;1.32;96.42;99382.59;5050786;28;20226;-62
2021/01/14 03:04:49;;;;;;;2.47;1.80;;;0.70;99.90;;;1.40;96.39;99379.06;5051548;28;20205;-63
2021/01/14 03:07:16;;;;;;;2.30;2.10;;;0.70;99.90;;;1.26;97.81;99396.59;5054290;28;20754;-62
2021/01/14 03:09:43;;;;;;;3.73;1.90;;;0.60;99.90;;;1.37;97.23;99393.47;5054403;28;20227;-63
2021/01/14 03:12:11;;;;;;;3.47;2.17;;;0.60;99.90;;;1.46;96.65;99400.38;5053847;28;20273;-62
2021/01/14 03:14:39;;;;;;;2.77;2.13;;;0.70;99.90;;;1.47;96.80;99403.84;5053996;28;20609;-62
2021/01/14 03:17:06;;;;;;;3.50;2.10;;;0.70;99.90;;;1.35;97.52;99400.81;5054036;28;20674;-63
2021/01/14 03:19:33;;;;;;;2.30;2.10;;;0.70;99.90;;;1.36;98.09;99402.47;5054004;28;20205;-63
2021/01/14 03:22:01;;;;;;;4.63;2.53;;;0.70;99.90;;;1.48;97.29;99390.41;5053732;28;20783;-63
2021/01/14 03:24:29;;;;;;;2.70;2.07;;;0.70;99.90;;;1.47;97.12;99417.13;5054250;28;20235;-61
2021/01/14 03:26:56;;;;;;;2.97;2.10;;;0.70;99.90;;;1.42;97.61;99416.84;5053999;28;20202;-62
2021/01/14 03:29:24;;;;;;;3.33;2.10;;;0.70;99.90;;;1.38;98.92;99426.97;5054022;28;20208;-63
2021/01/14 03:31:52;;;;;;;3.00;1.77;;;0.70;99.90;;;1.48;97.81;99408.16;5053991;28;20237;-63
2021/01/14 03:34:19;;;;;;;4.40;1.93;;;0.70;99.90;;;1.40;97.83;99414.38;5053272;28;20210;-62
2021/01/14 03:39:29;;;;;;;2.80;1.70;;;0.80;99.90;;;1.57;97.43;99415.88;5051115;28;20203;-63
2021/01/14 03:41:58;;;;;;;4.03;1.80;;;0.80;99.90;;;1.51;97.32;99419.22;5053310;28;20701;-62
2021/01/14 03:44:25;;;;;;;2.83;1.70;;;0.80;99.90;;;1.66;96.87;99428.03;5053371;28;20266;-63
2021/01/14 03:46:53;;;;;;;3.53;1.90;;;0.80;99.90;;;1.72;97.97;99422.03;5053744;28;20231;-62
2021/01/14 03:49:21;;;;;;;2.23;1.77;;;0.90;99.90;;;1.62;99.22;99445.34;5053193;28;20677;-63
2021/01/14 03:51:48;;;;;;;2.47;2.00;;;0.90;99.90;;;1.54;98.80;99444.59;5053684;28;20284;-62
2021/01/14 03:54:21;;;;;;;1.60;1.50;;;0.90;99.90;;;1.44;99.78;99452.78;5053638;28;20206;-62
2021/01/14 03:56:49;;;;;;;5.00;2.30;;;0.80;99.90;;;1.60;100.00;99450.00;5053544;28;20248;-62
2021/01/14 03:59:16;;;;;;;4.77;1.93;;;0.90;99.90;;;1.58;100.00;99457.31;5053338;28;20279;-62
2021/01/14 04:01:43;;;;;;;3.87;2.30;;;0.90;99.90;;;1.54;100.00;99471.94;5053213;28;20287;-62
2021/01/14 04:04:11;;;;;;;2.70;2.00;;;0.80;99.90;;;1.51;100.00;99471.47;5053083;28;20244;-62
2021/01/14 04:06:39;;;;;;;3.53;2.10;;;0.80;99.90;;;1.46;100.00;99482.63;5054179;28;20203;-63
2021/01/14 04:09:07;;;;;;;3.47;2.17;;;0.80;99.90;;;1.53;100.00;99477.41;5054428;28;20704;-63
2021/01/14 04:11:35;;;;;;;2.67;2.20;;;0.80;99.90;;;1.53;100.00;99514.56;5053690;28;20231;-62
2021/01/14 04:14:02;;;;;;;5.37;2.50;;;0.80;99.90;;;1.51;100.00;99495.34;5053635;28;20211;-62
2021/01/14 04:16:29;;;;;;;2.77;2.27;;;0.80;99.90;;;1.49;100.00;99511.44;5052919;28;20213;-61
2021/01/14 04:18:57;;;;;;;2.47;2.27;;;0.80;99.90;;;1.53;100.00;99515.41;5052885;28;20755;-62
2021/01/14 04:21:27;;;;;;;6.00;2.60;;;0.80;99.90;;;1.54;100.00;99508.28;5053167;28;20279;-62
2021/01/14 04:23:54;;;;;;;4.50;2.50;;;0.80;99.90;;;1.47;100.00;99518.78;5052701;28;20659;-62
2021/01/14 04:26:21;;;;;;;3.73;2.10;;;0.80;99.90;;;1.51;100.00;99525.38;5052744;28;20213;-63
2021/01/14 04:28:49;;;;;;;3.13;2.20;;;0.80;99.90;;;1.58;100.00;99528.97;5052622;28;20674;-62
2021/01/14 04:31:16;;;;;;;3.67;2.50;;;0.90;99.90;;;1.57;100.00;99534.44;5052734;28;20732;-62
2021/01/14 04:34:02;;;;;;;3.90;2.27;;;0.90;99.90;;;1.45;100.00;99539.34;5052652;28;20211;-62
2021/01/14 04:36:31;;;;;;;2.83;2.40;;;0.80;99.90;;;1.60;100.00;99548.19;5052841;28;20305;-61
2021/01/14 04:38:58;;;;;;;3.20;2.50;;;0.80;99.90;;;1.60;100.00;99548.19;5052594;28;20252;-62
2021/01/14 04:41:41;;;;;;;3.33;2.50;;;0.90;99.90;;;1.47;100.00;99552.44;5052611;28;20204;-62
2021/01/14 04:44:09;;;;;;;3.70;2.30;;;0.80;99.90;;;1.56;100.00;99570.75;5052289;28;20223;-62
2021/01/14 04:46:40;;;;;;;4.23;2.57;;;0.80;99.90;;;1.49;100.00;99572.47;5052721;28;20208;-63
2021/01/14 04:49:07;;;;;;;3.23;2.70;;;0.80;99.90;;;1.42;100.00;99581.31;5052363;28;20187;-62
2021/01/14 04:51:36;;;;;;;2.93;2.30;;;0.80;99.90;;;1.56;100.00;99589.34;5052533;28;20289;-63
2021/01/14 04:54:05;;;;;;;2.80;2.60;;;0.80;99.90;;;1.48;100.00;99601.84;5052438;28;20287;-62
2021/01/14 04:56:35;;;;;;;3.93;2.50;;;0.80;99.90;;;1.62;100.00;99601.94;5052415;28;20305;-61
2021/01/14 04:59:04;;;;;;;2.93;2.73;;;0.80;99.90;;;1.63;100.00;99611.53;5052498;28;20300;-62
2021/01/14 05:01:39;;;;;;;2.97;2.53;;;0.80;99.90;;;1.61;100.00;99612.72;5052314;28;20206;-61
2021/01/14 05:04:10;;;;;;;3.27;2.97;;;0.90;99.90;;;1.52;100.00;99613.75;5051929;28;20383;-62
2021/01/14 05:06:39;;;;;;;4.80;2.67;;;0.80;99.90;;;1.53;100.00;99612.75;5052496;28;20254;-62
2021/01/14 05:09:08;;;;;;;3.17;2.80;;;0.80;99.90;;;1.55;100.00;99614.25;5052098;28;20205;-62
2021/01/14 05:11:54;;;;;;;5.03;3.07;;;0.80;99.90;;;1.55;100.00;99622.19;5051671;28;20326;-62
2021/01/14 05:14:22;;;;;;;3.23;2.93;;;0.80;99.90;;;1.58;100.00;99636.94;5051993;28;20225;-63
2021/01/14 05:16:50;;;;;;;4.57;3.20;;;0.90;99.90;;;1.52;100.00;99629.69;5052047;28;20236;-63
2021/01/14 05:19:17;;;;;;;4.20;3.13;;;0.90;99.90;;;1.38;100.00;99651.66;5051668;28;20236;-62
2021/01/14 05:21:46;;;;;;;3.23;2.93;;;0.80;99.90;;;1.58;100.00;99648.38;5051930;28;20303;-62
2021/01/14 05:24:16;;;;;;;6.27;3.80;;;0.80;99.90;;;1.56;100.00;99647.72;5051381;28;20700;-62
2021/01/14 05:26:44;;;;;;;4.10;3.70;;;0.80;99.90;;;1.60;100.00;99656.16;5050997;28;20691;-62
2021/01/14 05:29:16;;;;;;;3.40;3.10;;;0.80;99.90;;;1.61;100.00;99658.66;5051199;28;20297;-61
2021/01/14 05:31:43;;;;;;;3.60;3.30;;;0.90;99.90;;;1.70;100.00;99662.91;5051601;28;20319;-63
2021/01/14 05:34:14;;;;;;;6.13;3.37;;;0.90;99.90;;;1.73;100.00;99675.81;5051528;28;20207;-62
2021/01/14 05:36:57;;;;;;;4.30;3.90;;;1.00;99.90;;;1.81;100.00;99688.25;5051401;28;20261;-62
2021/01/14 05:39:25;;;;;;;4.40;3.27;;;1.00;99.90;;;1.78;100.00;99700.03;5051339;28;20231;-62
2021/01/14 05:41:52;;;;;;;4.27;3.40;;;1.00;99.90;;;1.68;100.00;99706.53;5051858;28;20255;-64
2021/01/14 05:44:36;;;;;;;3.27;2.97;;;1.00;99.90;;;1.79;100.00;99717.63;5052319;28;20285;-62
2021/01/14 05:47:21;;;;;;;4.60;2.77;;;1.00;99.90;;;1.72;100.00;99723.78;5052149;28;20269;-62
2021/01/14 05:50:03;;;;;;;3.90;3.50;;;1.00;99.90;;;1.71;100.00;99720.28;5052096;28;20205;-62
2021/01/14 05:52:33;;;;;;;4.40;3.63;;;1.00;99.90;;;1.66;100.00;99735.91;5052043;28;20252;-63
2021/01/14 05:55:06;;;;;;;4.47;3.50;;;1.00;99.90;;;1.67;100.00;99748.22;5052312;28;20192;-62
2021/01/14 05:57:38;;;;;;;3.70;3.37;;;1.00;99.90;;;1.58;100.00;99754.53;5052242;28;20610;-62
2021/01/14 06:00:16;;;;;;;4.63;3.40;;;1.00;99.90;;;1.82;100.00;99754.44;5052133;28;20686;-62
2021/01/14 06:02:43;;;;;;;4.23;3.80;;;1.00;99.90;;;1.77;100.00;99764.75;5051896;28;20213;-62
2021/01/14 06:05:26;;;;;;;4.47;3.77;;;1.00;99.90;;;1.78;100.00;99761.06;5052227;28;20288;-62
2021/01/14 06:07:55;;;;;;;4.47;4.07;;;1.10;99.90;;;1.66;100.00;99770.41;5052335;28;20265;-62
2021/01/14 06:10:33;;;;;;;4.30;3.90;;;1.00;99.90;;;1.63;100.00;99773.44;5051954;28;20958;-63
2021/01/14 06:13:01;;;;;;;5.33;4.73;;;1.00;99.90;;;1.81;100.00;99776.66;5051981;28;20193;-63
2021/01/14 06:15:28;;;;;;;5.87;4.20;;;1.00;99.90;;;1.79;100.00;99783.16;5051933;28;20287;-63
2021/01/14 06:18:01;;;;;;;5.90;4.67;;;1.10;99.90;;;1.72;100.00;99790.16;5051628;28;20284;-63
2021/01/14 06:20:28;;;;;;;5.37;4.70;;;1.10;99.90;;;1.87;100.00;99796.38;5051953;28;20185;-62
2021/01/14 06:22:58;;;;;;;6.37;4.70;;;1.10;99.90;;;1.76;100.00;99792.28;5051882;28;20842;-63
2021/01/14 06:25:26;;;;;;;6.47;4.97;;;1.10;99.90;;;1.83;100.00;99803.03;5052001;28;20241;-63
2021/01/14 06:27:55;;;;;;;6.20;5.37;;;1.10;99.90;;;1.89;100.00;99813.81;5051883;28;20691;-63
2021/01/14 06:30:23;;;;;;;6.03;5.10;;;1.10;99.90;;;1.88;100.00;99816.63;5052363;28;20206;-63
2021/01/14 06:33:02;;;;;;;5.67;4.83;;;1.10;99.90;;;1.91;100.00;99813.63;5051972;28;20636;-63
2021/01/14 06:35:29;;;;;;;5.67;5.07;;;1.20;99.90;;;1.93;100.00;99827.56;5051831;28;20560;-62
2021/01/14 06:38:10;;;;;;;5.37;4.73;;;1.20;99.90;;;2.07;100.00;99830.31;5051662;28;20205;-63
2021/01/14 06:40:44;;;;;;;6.20;4.70;;;1.20;99.90;;;1.85;100.00;99840.88;5055833;28;20226;-62
2021/01/14 06:43:16;;;;;;;7.70;5.23;;;1.20;99.90;;;1.97;100.00;99850.94;5055245;28;20741;-62
2021/01/14 06:45:57;;;;;;;6.80;5.20;;;1.20;99.90;;;2.14;100.00;99851.69;5055924;28;20186;-62
2021/01/14 06:48:35;;;;;;;5.37;4.87;;;1.30;99.90;;;1.71;100.00;99860.19;5055576;28;20335;-62
2021/01/14 06:51:10;;;;;;;6.10;5.20;;;1.20;99.90;;;1.88;100.00;99859.94;5055659;28;20225;-62
2021/01/14 06:53:41;;;;;;;6.83;5.20;;;1.10;99.90;;;2.00;100.00;99871.84;5055174;28;20229;-63
2021/01/14 06:56:11;;;;;;;5.37;4.87;;;1.20;99.90;;;1.86;100.00;99875.19;5054796;28;20288;-62
2021/01/14 06:58:47;;;;;;;6.47;5.63;;;1.20;99.90;;;2.06;100.00;99880.97;5054844;28;20312;-63
2021/01/14 07:01:18;;;;;;;6.77;5.93;;;1.20;99.90;;;2.04;100.00;99888.25;5055457;28;20224;-63
2021/01/14 07:03:57;;;;;;;6.20;5.20;;;1.20;99.90;;;2.01;100.00;99893.94;5055153;28;20269;-62
2021/01/14 07:06:33;;;;;;;6.33;5.10;;;1.20;99.90;;;2.04;100.00;99907.69;5055388;28;20181;-63
2021/01/14 07:09:14;;;;;;;5.77;4.70;;;1.20;99.90;;;2.08;100.00;99924.13;5055686;28;20275;-62
2021/01/14 07:11:42;;;;;;;6.23;4.50;;;1.30;99.90;;;2.06;100.00;99929.56;5054792;28;20276;-62
2021/01/14 07:14:15;;;;;;;6.00;4.43;;;1.30;99.90;;;2.01;100.00;99931.91;5055121;28;20264;-62
2021/01/14 07:16:45;;;;;;;4.23;3.80;;;1.30;99.90;;;2.21;100.00;99943.00;5055200;28;20260;-62
2021/01/14 07:19:12;;;;;;;4.83;4.27;;;1.40;99.90;;;2.19;100.00;99942.31;5054999;28;20300;-61
2021/01/14 07:21:43;;;;;;;4.57;4.07;;;1.40;99.90;;;2.03;100.00;99959.13;5054778;28;20561;-62
2021/01/14 07:24:20;;;;;;;4.83;4.20;;;1.40;99.90;;;2.19;100.00;99967.06;5054712;28;20302;-61
2021/01/14 07:26:52;;;;;;;5.07;3.80;;;1.40;99.90;;;2.20;100.00;99967.88;5054675;28;20625;-62
2021/01/14 07:29:20;;;;;;;6.23;3.73;;;1.40;99.90;;;2.24;100.00;99977.19;5054833;28;20225;-62
2021/01/14 07:31:49;;;;;;;5.03;3.63;;;1.50;99.90;;;2.16;100.00;99980.72;5054570;28;20271;-61
2021/01/14 07:34:35;;;;;;;5.67;4.60;;;1.40;99.90;;;2.16;100.00;99986.03;5054479;28;20244;-61
2021/01/14 07:37:08;;;;;;;4.97;3.80;;;1.40;99.90;;;2.17;100.00;99986.81;5054832;28;20186;-61
2021/01/14 07:39:52;;;;;;;5.57;4.13;;;1.40;99.90;;;2.27;100.00;100011.38;5054591;28;20182;-61
2021/01/14 07:42:25;;;;;;;6.67;3.70;;;1.50;99.90;;;2.27;100.00;100004.25;5054682;28;20188;-62
2021/01/14 07:44:55;;;;;;;4.57;4.03;;;1.50;99.90;;;2.18;100.00;100017.72;5054442;28;20209;-62
2021/01/14 07:47:28;;;;;;;4.37;3.97;;;1.50;99.90;;;2.28;100.00;100021.84;5054666;28;20243;-62
2021/01/14 07:49:57;;;;;;;5.57;4.13;;;1.50;99.90;;;2.38;100.00;100038.41;5053900;28;20621;-62
2021/01/14 07:52:34;;;;;;;5.23;4.10;;;1.50;99.90;;;2.32;100.00;100041.75;5054252;28;20292;-62
2021/01/14 07:55:07;;;;;;;4.93;4.10;;;1.70;99.90;;;2.49;100.00;100051.34;5053586;28;20266;-61
2021/01/14 07:57:46;;;;;;;5.00;4.17;;;1.60;99.90;;;2.36;100.00;100055.53;5051388;28;20194;-61
2021/01/14 08:00:23;;;;;;;4.87;3.70;;;1.60;99.90;;;2.45;100.00;100067.81;5051482;28;20196;-64
2021/01/14 08:03:13;;;;;;;6.00;4.50;;;1.60;99.90;;;2.53;100.00;100069.63;5051335;28;20292;-65
2021/01/14 08:05:56;;;;;;;6.23;4.33;;;1.60;99.90;;;2.41;100.00;100074.47;5051148;28;20193;-65
2021/01/14 08:08:27;;;;;;;4.27;3.53;;;1.60;99.90;;;2.65;100.00;100086.84;5051033;28;20525;-63
2021/01/14 08:11:14;;;;;;;4.90;4.00;;;1.70;99.90;;;2.70;100.00;100097.81;5050933;28;20792;-64
2021/01/14 08:14:14;;;;;;;6.20;4.20;;;1.80;99.90;;;2.68;100.00;100105.97;5051043;28;20261;-65
2021/01/14 08:16:50;;;;;;;5.40;3.93;;;1.80;99.90;;;2.46;100.00;100110.16;5052273;28;20262;-63
2021/01/14 08:19:22;;;;;;;6.33;4.10;;;1.80;99.90;;;2.67;100.00;100112.28;5051442;28;20268;-65
2021/01/14 08:22:06;;;;;;;5.57;3.97;;;1.80;99.90;;;2.58;100.00;100120.44;5051204;28;20200;-64
2021/01/14 08:24:44;;;;;;;5.47;4.07;;;1.80;99.90;;;2.77;100.00;100133.38;5050760;28;20301;-64
2021/01/14 08:27:26;;;;;;;4.80;3.80;;;1.80;99.90;;;2.77;100.00;100128.03;5050645;28;20267;-65
2021/01/14 08:29:59;;;;;;;7.07;5.00;;;1.90;99.90;;;2.80;100.00;100139.16;5050120;28;20621;-65
2021/01/14 08:32:42;;;;;;;5.23;3.60;;;1.90;99.90;;;2.85;100.00;100146.63;5049869;28;20276;-64
2021/01/14 08:35:27;;;;;;;3.77;3.37;;;1.90;99.90;;;2.79;100.00;100142.00;5050318;28;20197;-64
2021/01/14 08:37:57;;;;;;;5.57;3.90;;;1.90;99.90;;;2.81;100.00;100153.31;5050504;28;20193;-63
2021/01/14 08:40:31;;;;;;;4.47;3.57;;;2.00;99.90;;;2.73;100.00;100158.63;5050318;28;20197;-63
2021/01/14 08:43:08;;;;;;;3.53;3.23;;;2.00;99.90;;;2.88;100.00;100171.06;5050336;28;20208;-67
2021/01/14 08:45:47;;;;;;;4.00;3.13;;;2.00;99.90;;;2.79;100.00;100171.25;5050216;28;20243;-67
2021/01/14 08:48:22;;;;;;;4.20;3.50;;;1.90;99.90;;;2.68;100.00;100172.44;5050226;28;20667;-66
2021/01/14 08:51:01;;;;;;;4.40;3.37;;;1.90;99.90;;;2.76;100.00;100187.56;5050288;28;20276;-65
2021/01/14 08:53:34;;;;;;;7.03;3.70;;;1.90;99.90;;;2.69;100.00;100187.38;5049722;28;20208;-65
2021/01/14 08:56:04;;;;;;;4.97;3.53;;;1.90;99.90;;;2.61;100.00;100195.38;5050189;28;20218;-71
2021/01/14 08:58:39;;;;;;;6.10;3.67;;;1.90;99.90;;;2.72;100.00;100192.38;5049708;28;20240;-68
2021/01/14 09:01:09;;;;;;;4.77;3.33;;;1.90;99.90;;;2.78;100.00;100196.19;5049766;28;20193;-69
2021/01/14 09:03:40;;;;;;;4.97;3.30;;;1.90;99.90;;;2.74;100.00;100202.84;5049026;28;20206;-68
2021/01/14 09:06:09;;;;;;;4.77;2.90;;;2.00;99.90;;;2.72;100.00;100199.53;5050152;28;20194;-62
2021/01/14 09:08:36;;;;;;;5.03;3.07;;;1.90;99.90;;;2.80;100.00;100203.00;5050091;28;20201;-65
2021/01/14 09:11:03;;;;;;;4.37;3.00;;;2.00;99.90;;;2.85;100.00;100216.63;5049983;28;20220;-68
2021/01/14 09:13:32;;;;;;;3.93;2.70;;;2.00;99.90;;;2.96;100.00;100220.75;5049603;28;20267;-64
2021/01/14 09:16:09;;;;;;;6.37;2.90;;;2.10;99.90;;;3.03;100.00;100227.03;5048993;28;20293;-67
2021/01/14 09:18:40;;;;;;;4.17;3.03;;;2.10;99.90;;;3.09;100.00;100235.19;5048866;28;20211;-60
2021/01/14 09:21:11;;;;;;;3.57;2.43;;;2.20;99.90;;;2.75;100.00;100231.94;5048425;28;20300;-63
2021/01/14 09:23:39;;;;;;;5.53;2.80;;;2.20;99.90;;;2.83;100.00;100241.72;5048526;28;20303;-63
2021/01/14 09:26:13;;;;;;;8.57;2.40;;;2.10;99.90;;;2.85;100.00;100243.22;5048353;28;20209;-62
2021/01/14 09:28:48;;;;;;;5.70;3.07;;;2.00;99.90;;;2.81;100.00;100254.38;5048477;28;20193;-66
2021/01/14 09:31:17;;;;;;;5.80;2.70;;;2.10;99.90;;;2.89;100.00;100267.66;5048374;28;20193;-67
2021/01/14 09:33:46;;;;;;;4.90;2.90;;;2.00;99.90;;;2.93;100.00;100267.13;5048052;28;20318;-66
2021/01/14 09:36:16;;;;;;;3.83;2.80;;;2.10;99.90;;;2.84;100.00;100270.00;5048333;28;20621;-66
2021/01/14 09:38:47;;;;;;;5.33;3.13;;;2.10;99.90;;;2.80;100.00;100281.94;5048365;28;20248;-67
2021/01/14 09:41:23;;;;;;;6.23;3.03;;;2.10;99.90;;;2.73;100.00;100287.09;5048214;28;20193;-67
2021/01/14 09:43:55;;;;;;;4.47;2.83;;;2.00;99.90;;;2.74;100.00;100301.25;5048137;28;20207;-64
2021/01/14 09:46:25;;;;;;;6.77;2.97;;;1.90;99.90;;;2.77;100.00;100298.25;5045244;28;20261;-64
2021/01/14 09:49:02;;;;;;;3.97;2.87;;;2.00;99.90;;;2.98;100.00;100303.88;5047632;28;20688;-64
2021/01/14 09:51:29;;;;;;;6.67;3.10;;;2.00;99.90;;;3.35;100.00;100310.31;5047925;28;20272;-64
2021/01/14 09:53:56;;;;;;;4.10;2.70;;;2.30;99.90;;;3.69;100.00;100302.06;5047809;28;20688;-63
2021/01/14 09:56:33;;;;;;;5.00;2.93;;;2.50;99.90;;;3.44;100.00;100314.63;5047905;28;20201;-65
2021/01/14 09:59:09;;;;;;;4.53;2.77;;;2.60;99.90;;;3.43;100.00;100323.59;5048088;28;20554;-68
2021/01/14 10:01:46;;;;;;;3.83;2.80;;;2.60;99.90;;;3.49;100.00;100324.75;5047165;28;20215;-62
2021/01/14 10:04:19;;;;;;;4.73;3.07;;;2.60;99.90;;;3.39;99.92;100332.09;5047815;28;20701;-65
2021/01/14 10:07:00;;;;;;;5.40;3.03;;;2.60;99.90;;;2.84;100.00;100337.28;5047767;28;20721;-65
2021/01/14 10:09:27;;;;;;;4.73;2.70;;;2.40;99.90;;;3.20;100.00;100337.78;5047990;28;20259;-64
2021/01/14 10:11:56;;;;;;;6.13;3.67;;;2.40;99.90;;;3.68;100.00;100343.03;5047769;28;20236;-64
2021/01/14 10:14:23;;;;;;;5.40;3.30;;;2.60;99.90;;;4.27;96.51;100339.78;5049802;28;20201;-67
2021/01/14 10:16:51;;;;;;;3.60;2.90;;;3.00;99.90;;;4.42;93.66;100343.38;5051548;28;20248;-70
2021/01/14 10:19:20;;;;;;;3.67;2.70;;;3.20;99.90;;;4.00;94.87;100342.06;5051916;28;20208;-66
2021/01/14 10:21:49;;;;;;;3.20;2.57;;;3.20;99.90;;;4.02;95.48;100348.06;5051560;28;20205;-66
2021/01/14 10:24:26;;;;;;;3.63;2.80;;;3.10;99.90;;;3.96;94.89;100340.78;5051506;28;20280;-69
2021/01/14 10:26:53;;;;;;;4.43;3.00;;;3.10;99.90;;;3.58;97.41;100355.69;5051730;28;20185;-71
2021/01/14 10:29:38;;;;;;;3.70;2.70;;;2.90;99.90;;;3.88;96.32;100362.94;5051691;28;20275;-72
2021/01/14 10:32:08;;;;;;;4.23;3.20;;;2.90;99.90;;;3.98;95.63;100368.06;5050960;28;20747;-72
2021/01/14 10:34:45;;;;;;;6.27;3.00;;;2.90;99.90;;;3.80;95.68;100362.97;5051494;28;20541;-71
2021/01/14 10:37:24;;;;;;;3.40;2.87;;;2.90;99.90;;;3.93;96.33;100363.25;5051594;28;20221;-69
2021/01/14 10:39:53;;;;;;;5.50;2.97;;;2.90;99.90;;;3.79;96.06;100352.50;5051336;28;20207;-64
2021/01/14 10:42:34;;;;;;;4.07;3.10;;;2.90;99.90;;;3.85;96.50;100347.31;5051477;28;20300;-65
2021/01/14 10:45:06;;;;;;;4.57;2.70;;;2.90;99.90;;;3.98;96.72;100357.41;5051323;28;20239;-66
2021/01/14 10:47:36;;;;;;;5.03;3.57;;;2.90;99.90;;;3.94;95.55;100358.75;5050510;28;20277;-67
2021/01/14 10:50:19;;;;;;;4.63;3.60;;;3.00;99.90;;;4.22;94.79;100357.28;5051334;28;20295;-67